Time;durP1;ratioP1;P1;durP2;ratioP2;P2;SDS_P1;SDS_P2;PMS_P1;PMS_P2;Temp;Humidity;BMP_temperature;BMP_pressure;BME280_temperature;BME280_humidity;BME280_pressure;Samples;Min_cycle;Max_cycle;Signal;HPM_P1;HPM_P2
2022/03/12 00:00:08;;;;;;;23.25;11.80;;;;;;;;;;5071317;27;95170;-74
2022/03/12 00:02:35;;;;;;;21.95;11.90;;;;;;;;;;5058808;27;95886;-73
2022/03/12 00:05:07;;;;;;;18.35;11.25;;;;;;;;;;5050880;27;95390;-74
2022/03/12 00:07:33;;;;;;;;;;;;;;;;;;5056804;27;96908;-75
2022/03/12 00:10:22;;;;;;;22.35;11.02;;;;;;;;;;5070828;27;95680;-74
2022/03/12 00:18:19;;;;;;;21.25;11.40;;;;;;;;;;5070521;27;97623;-76
2022/03/12 00:20:48;;;;;;;24.52;11.40;;;;;;;;;;5071467;27;95612;-75
2022/03/12 00:23:18;;;;;;;21.20;11.35;;;;;;;;;;5070513;27;96961;-74
2022/03/12 00:25:45;;;;;;;22.67;11.88;;;;;;;;;;5072632;27;97426;-75
2022/03/12 00:28:15;;;;;;;22.60;11.82;;;;;;;;;;5070175;27;96853;-75
2022/03/12 00:30:47;;;;;;;24.27;11.38;;;;;;;;;;5068516;27;97348;-75
2022/03/12 00:33:14;;;;;;;20.75;11.45;;;;;;;;;;5070775;27;95598;-74
2022/03/12 00:35:40;;;;;;;24.83;11.68;;;;;;;;;;5070858;27;96668;-74
2022/03/12 00:38:06;;;;;;;24.70;11.55;;;;;;;;;;5069391;27;97768;-75
2022/03/12 00:40:37;;;;;;;22.50;11.85;;;;;;;;;;5070699;27;95766;-74
2022/03/12 00:43:04;;;;;;;28.65;11.18;;;;;;;;;;5070152;27;97273;-74
2022/03/12 00:48:16;;;;;;;21.23;12.23;;;;;;;;;;5058036;27;96896;-74
2022/03/12 00:51:02;;;;;;;23.27;11.38;;;;;;;;;;5062025;27;99383;-75
2022/03/12 00:53:29;;;;;;;25.10;11.18;;;;;;;;;;5066720;27;95449;-72
2022/03/12 00:55:56;;;;;;;21.13;11.55;;;;;;;;;;5059088;27;97356;-73
2022/03/12 00:58:22;;;;;;;22.02;11.50;;;;;;;;;;5069573;27;97416;-73
2022/03/12 01:00:49;;;;;;;21.67;11.70;;;;;;;;;;5054107;27;95564;-75
2022/03/12 01:03:16;;;;;;;24.10;11.55;;;;;;;;;;5068489;27;96803;-74
2022/03/12 01:05:48;;;;;;;26.38;11.23;;;;;;;;;;5060402;27;97367;-75
2022/03/12 01:08:18;;;;;;;19.55;10.90;;;;;;;;;;5059115;27;95375;-72
2022/03/12 01:13:49;;;;;;;20.55;11.07;;;;;;;;;;5069980;27;95135;-73
2022/03/12 01:16:15;;;;;;;23.08;11.30;;;;;;;;;;5068576;27;96763;-75
2022/03/12 01:18:42;;;;;;;21.17;11.40;;;;;;;;;;5067507;27;97515;-73
2022/03/12 01:21:10;;;;;;;29.05;11.95;;;;;;;;;;5067426;27;95636;-72
2022/03/12 01:23:36;;;;;;;21.88;11.68;;;;;;;;;;5055538;27;96795;-72
2022/03/12 01:26:03;;;;;;;23.75;11.27;;;;;;;;;;5066540;27;96051;-74
2022/03/12 01:28:29;;;;;;;25.20;10.88;;;;;;;;;;5056692;27;95348;-74
2022/03/12 01:33:41;;;;;;;25.30;12.35;;;;;;;;;;5060213;27;95662;-73
2022/03/12 01:36:07;;;;;;;22.83;11.40;;;;;;;;;;5060443;27;97106;-73
2022/03/12 01:38:35;;;;;;;24.42;11.52;;;;;;;;;;5061938;27;97538;-72
2022/03/12 01:41:02;;;;;;;27.48;11.00;;;;;;;;;;5062332;27;95707;-73
2022/03/12 01:43:31;;;;;;;25.08;11.85;;;;;;;;;;5065745;27;96836;-72
2022/03/12 01:46:01;;;;;;;21.85;11.43;;;;;;;;;;5057945;27;97378;-75
2022/03/12 01:48:29;;;;;;;32.08;11.90;;;;;;;;;;5064824;27;96039;-75
2022/03/12 01:50:56;;;;;;;23.92;11.52;;;;;;;;;;5066727;27;97493;-73
2022/03/12 01:53:24;;;;;;;19.05;11.27;;;;;;;;;;5067100;27;97620;-73
2022/03/12 01:55:51;;;;;;;25.13;12.05;;;;;;;;;;5053000;27;96788;-74
2022/03/12 01:58:36;;;;;;;25.02;11.55;;;;;;;;;;5061238;27;95683;-74
2022/03/12 02:01:20;;;;;;;23.45;12.80;;;;;;;;;;5067810;27;95209;-72
2022/03/12 02:03:48;;;;;;;21.95;12.65;;;;;;;;;;5068917;27;96811;-73
2022/03/12 02:06:16;;;;;;;23.42;13.73;;;;;;;;;;5068699;27;97811;-78
2022/03/12 02:08:43;;;;;;;26.50;12.80;;;;;;;;;;5068261;27;95946;-75
2022/03/12 02:11:28;;;;;;;24.15;12.88;;;;;;;;;;5069200;27;96714;-76
2022/03/12 02:14:06;;;;;;;26.48;13.02;;;;;;;;;;5048749;27;97615;-75
2022/03/12 02:16:34;;;;;;;23.13;12.63;;;;;;;;;;5054500;27;95832;-75
2022/03/12 02:19:00;;;;;;;23.55;12.77;;;;;;;;;;5068086;27;97289;-76
2022/03/12 02:21:30;;;;;;;25.02;13.32;;;;;;;;;;5068284;27;95383;-75
2022/03/12 02:23:56;;;;;;;32.10;12.98;;;;;;;;;;5069390;27;98044;-75
2022/03/12 02:26:22;;;;;;;24.05;12.75;;;;;;;;;;5069093;27;97315;-76
2022/03/12 02:29:09;;;;;;;20.92;12.23;;;;;;;;;;5072040;27;95483;-76
2022/03/12 02:31:36;;;;;;;24.30;12.98;;;;;;;;;;5072742;27;96161;-75
2022/03/12 02:34:06;;;;;;;23.40;13.57;;;;;;;;;;5072517;27;97386;-74
2022/03/12 02:36:32;;;;;;;23.45;12.57;;;;;;;;;;5072372;27;95631;-76
2022/03/12 02:39:04;;;;;;;25.77;14.00;;;;;;;;;;5074768;27;97330;-75
2022/03/12 02:41:31;;;;;;;25.15;13.65;;;;;;;;;;5072440;27;95230;-74
2022/03/12 02:43:57;;;;;;;26.20;12.63;;;;;;;;;;5072143;27;96722;-74
2022/03/12 02:46:28;;;;;;;24.63;13.25;;;;;;;;;;5072503;27;97842;-74
2022/03/12 02:48:56;;;;;;;20.95;12.82;;;;;;;;;;5072248;27;95759;-74
2022/03/12 02:51:23;;;;;;;27.08;13.00;;;;;;;;;;5071608;27;96894;-74
2022/03/12 02:53:56;;;;;;;21.42;12.52;;;;;;;;;;5071942;27;97709;-74
2022/03/12 02:56:23;;;;;;;21.83;12.70;;;;;;;;;;5071936;27;95932;-74
2022/03/12 02:59:11;;;;;;;22.88;13.07;;;;;;;;;;5074767;27;97178;-74
2022/03/12 03:01:38;;;;;;;26.08;13.30;;;;;;;;;;5072285;27;95257;-75
2022/03/12 03:04:04;;;;;;;21.63;13.00;;;;;;;;;;5071698;27;96695;-74
2022/03/12 03:06:31;;;;;;;24.58;13.23;;;;;;;;;;5070231;27;97143;-74
2022/03/12 03:08:57;;;;;;;26.92;12.77;;;;;;;;;;5071619;27;95479;-73
2022/03/12 03:11:27;;;;;;;24.70;12.88;;;;;;;;;;5070429;27;97224;-74
2022/03/12 03:13:54;;;;;;;19.92;12.13;;;;;;;;;;5071785;27;96122;-74
2022/03/12 03:16:21;;;;;;;21.98;13.05;;;;;;;;;;5071974;27;95947;-73
2022/03/12 03:21:34;;;;;;;22.38;12.60;;;;;;;;;;5074652;27;97443;-74
2022/03/12 03:24:01;;;;;;;22.95;12.88;;;;;;;;;;5070142;27;97490;-73
2022/03/12 03:26:33;;;;;;;26.10;13.73;;;;;;;;;;5071491;27;97717;-75
2022/03/12 03:29:19;;;;;;;22.00;11.95;;;;;;;;;;5071758;27;95205;-75
2022/03/12 03:31:46;;;;;;;21.35;12.55;;;;;;;;;;5071448;27;96862;-75
2022/03/12 03:34:13;;;;;;;21.25;12.50;;;;;;;;;;5071332;27;97422;-76
2022/03/12 03:36:40;;;;;;;23.58;12.20;;;;;;;;;;5071733;27;95682;-74
2022/03/12 03:39:06;;;;;;;18.80;11.90;;;;;;;;;;5069911;27;99746;-74
2022/03/12 03:41:33;;;;;;;25.48;13.10;;;;;;;;;;5071206;27;96867;-76
2022/03/12 03:44:00;;;;;;;22.60;13.18;;;;;;;;;;5072658;27;95619;-76
2022/03/12 03:46:26;;;;;;;20.98;12.25;;;;;;;;;;5065182;27;97631;-76
2022/03/12 03:48:53;;;;;;;20.17;12.68;;;;;;;;;;5063571;27;95327;-74
2022/03/12 03:51:20;;;;;;;21.63;12.60;;;;;;;;;;5065982;27;97006;-74
2022/03/12 03:53:47;;;;;;;21.05;12.93;;;;;;;;;;5068936;27;96866;-74
2022/03/12 03:56:14;;;;;;;22.35;12.13;;;;;;;;;;5070485;27;96147;-75
2022/03/12 03:58:40;;;;;;;19.35;12.07;;;;;;;;;;5071151;27;96982;-75
2022/03/12 04:01:12;;;;;;;27.30;13.75;;;;;;;;;;5055609;27;97107;-72
2022/03/12 04:03:42;;;;;;;20.95;12.65;;;;;;;;;;5064062;27;95355;-75
2022/03/12 04:06:08;;;;;;;21.27;13.45;;;;;;;;;;5066487;27;96857;-75
2022/03/12 04:08:35;;;;;;;24.05;13.15;;;;;;;;;;5070150;27;95690;-75
2022/03/12 04:11:04;;;;;;;22.02;12.60;;;;;;;;;;5052697;27;96746;-74
2022/03/12 04:13:31;;;;;;;21.08;12.95;;;;;;;;;;5056932;27;97374;-73
2022/03/12 04:16:01;;;;;;;27.45;12.75;;;;;;;;;;5063575;27;95392;-75
2022/03/12 04:18:29;;;;;;;22.65;12.52;;;;;;;;;;5055981;27;96826;-74
2022/03/12 04:21:01;;;;;;;24.05;12.68;;;;;;;;;;5051654;27;97335;-74
2022/03/12 04:23:49;;;;;;;23.40;12.63;;;;;;;;;;5061109;27;95481;-74
2022/03/12 04:26:35;;;;;;;21.25;12.68;;;;;;;;;;5058587;27;95204;-75
2022/03/12 04:29:04;;;;;;;20.33;12.52;;;;;;;;;;5060877;27;97285;-76
2022/03/12 04:31:31;;;;;;;24.90;12.73;;;;;;;;;;5066293;27;96906;-74
2022/03/12 04:33:57;;;;;;;23.20;13.00;;;;;;;;;;5053699;27;97662;-74
2022/03/12 04:36:26;;;;;;;25.33;13.23;;;;;;;;;;5064746;27;95818;-75
2022/03/12 04:38:52;;;;;;;21.67;12.80;;;;;;;;;;5059839;27;96828;-74
2022/03/12 04:41:19;;;;;;;23.23;13.13;;;;;;;;;;5063870;27;97351;-72
2022/03/12 04:43:50;;;;;;;22.40;12.38;;;;;;;;;;5061387;27;95889;-75
2022/03/12 04:46:17;;;;;;;23.80;13.05;;;;;;;;;;5064250;27;97192;-74
2022/03/12 04:48:44;;;;;;;22.20;12.43;;;;;;;;;;5059360;27;97352;-73
2022/03/12 04:51:11;;;;;;;20.90;12.02;;;;;;;;;;5061012;27;95825;-74
2022/03/12 04:53:38;;;;;;;27.70;13.45;;;;;;;;;;5069532;27;97261;-74
2022/03/12 04:56:23;;;;;;;22.23;12.52;;;;;;;;;;5056669;27;95596;-74
2022/03/12 04:58:49;;;;;;;20.70;12.75;;;;;;;;;;5067735;27;95388;-74
2022/03/12 05:01:16;;;;;;;21.10;12.48;;;;;;;;;;5069543;27;96639;-73
2022/03/12 05:03:43;;;;;;;24.25;12.60;;;;;;;;;;5068242;27;95582;-73
2022/03/12 05:06:28;;;;;;;20.95;11.95;;;;;;;;;;5065046;27;96440;-73
2022/03/12 05:08:56;;;;;;;24.90;12.40;;;;;;;;;;5060811;27;97423;-73
2022/03/12 05:11:23;;;;;;;20.80;12.20;;;;;;;;;;5060519;27;95573;-73
2022/03/12 05:13:53;;;;;;;22.73;13.18;;;;;;;;;;5069233;27;97519;-74
2022/03/12 05:16:20;;;;;;;21.25;12.68;;;;;;;;;;5068798;27;95311;-74
2022/03/12 05:18:47;;;;;;;22.10;12.48;;;;;;;;;;5059128;27;96866;-74
2022/03/12 05:21:15;;;;;;;21.95;12.05;;;;;;;;;;5061930;27;97629;-74
2022/03/12 05:23:42;;;;;;;19.88;12.20;;;;;;;;;;5066938;27;95384;-72
2022/03/12 05:26:16;;;;;;;20.13;12.48;;;;;;;;;;5065249;27;96314;-73
2022/03/12 05:28:49;;;;;;;24.02;12.45;;;;;;;;;;5061080;27;98963;-74
2022/03/12 05:31:17;;;;;;;20.35;12.70;;;;;;;;;;5053784;27;95751;-74
2022/03/12 05:34:02;;;;;;;20.70;12.05;;;;;;;;;;5069873;27;98362;-73
2022/03/12 05:36:29;;;;;;;20.02;11.65;;;;;;;;;;5062397;27;95571;-73
2022/03/12 05:41:59;;;;;;;19.17;12.48;;;;;;;;;;5053287;27;95439;-74
2022/03/12 05:44:44;;;;;;;26.23;13.05;;;;;;;;;;5059384;27;95793;-74
2022/03/12 05:47:10;;;;;;;23.33;12.48;;;;;;;;;;5055076;27;97126;-73
2022/03/12 05:49:43;;;;;;;22.48;12.48;;;;;;;;;;5064119;27;97341;-74
2022/03/12 05:52:10;;;;;;;20.20;12.32;;;;;;;;;;5053269;27;95395;-73
2022/03/12 17:43:00;;;;;;;14.48;4.35;;;;;;;;;;5086131;27;97449;-75
2022/03/12 17:45:31;;;;;;;13.35;6.22;;;;;;;;;;5087199;27;96003;-73
2022/03/12 17:47:58;;;;;;;10.75;4.80;;;;;;;;;;5086884;27;96850;-74
2022/03/12 17:50:24;;;;;;;16.10;6.00;;;;;;;;;;5085327;27;97336;-73
2022/03/12 17:52:51;;;;;;;15.38;6.05;;;;;;;;;;5079693;27;95416;-73
2022/03/12 17:55:36;;;;;;;15.40;5.35;;;;;;;;;;5083474;27;96621;-74
2022/03/12 17:58:02;;;;;;;11.70;5.63;;;;;;;;;;5064709;27;97248;-75
2022/03/12 18:00:29;;;;;;;14.07;5.80;;;;;;;;;;5089151;27;95320;-75
2022/03/12 18:02:56;;;;;;;15.98;5.85;;;;;;;;;;5084577;27;97203;-75
2022/03/12 18:05:24;;;;;;;10.93;5.32;;;;;;;;;;5083755;27;96061;-75
2022/03/12 18:08:11;;;;;;;14.07;4.90;;;;;;;;;;5083980;27;96078;-75
2022/03/12 18:10:37;;;;;;;11.95;5.40;;;;;;;;;;5085742;27;97249;-75
2022/03/12 18:13:23;;;;;;;12.73;5.53;;;;;;;;;;5084972;27;96302;-74
2022/03/12 18:15:51;;;;;;;13.32;6.03;;;;;;;;;;5073977;27;97155;-75
2022/03/12 18:18:36;;;;;;;18.20;6.68;;;;;;;;;;5064661;27;95597;-74
2022/03/12 18:21:02;;;;;;;13.35;6.20;;;;;;;;;;5081449;27;95643;-75
2022/03/12 18:23:49;;;;;;;17.23;6.15;;;;;;;;;;5089042;27;96814;-75
2022/03/12 18:26:15;;;;;;;13.05;5.90;;;;;;;;;;5084641;27;95731;-74
2022/03/12 18:28:42;;;;;;;16.13;6.57;;;;;;;;;;5073810;27;96696;-75
2022/03/12 18:31:29;;;;;;;13.43;6.75;;;;;;;;;;5072470;27;97261;-73
2022/03/12 18:33:56;;;;;;;13.40;7.38;;;;;;;;;;5075486;27;95689;-74
2022/03/12 18:36:23;;;;;;;17.35;7.78;;;;;;;;;;5067706;27;96841;-74
2022/03/12 18:38:49;;;;;;;14.20;7.88;;;;;;;;;;5075980;27;97365;-74
2022/03/12 18:41:18;;;;;;;16.50;7.80;;;;;;;;;;5079957;27;96769;-74
2022/03/12 18:43:45;;;;;;;14.68;7.85;;;;;;;;;;5086158;27;95222;-75
2022/03/12 18:46:11;;;;;;;16.50;7.32;;;;;;;;;;5085859;27;97316;-74
2022/03/12 18:48:38;;;;;;;17.67;8.23;;;;;;;;;;5085193;27;96853;-74
2022/03/12 18:51:05;;;;;;;16.65;7.90;;;;;;;;;;5072084;27;97783;-74
2022/03/12 18:53:32;;;;;;;17.60;8.20;;;;;;;;;;5070391;27;95627;-74
2022/03/12 18:55:58;;;;;;;14.45;8.43;;;;;;;;;;5069876;27;97183;-74
2022/03/12 18:58:28;;;;;;;14.07;8.82;;;;;;;;;;5068902;27;97999;-75
2022/03/12 19:00:55;;;;;;;13.85;8.90;;;;;;;;;;5068954;27;95577;-74
2022/03/12 19:03:24;;;;;;;15.90;9.77;;;;;;;;;;5071082;27;97205;-74
2022/03/12 19:05:50;;;;;;;13.48;8.73;;;;;;;;;;5071373;27;97579;-74
2022/03/12 19:08:19;;;;;;;18.27;9.30;;;;;;;;;;5073352;27;95471;-74
2022/03/12 19:10:46;;;;;;;13.10;8.55;;;;;;;;;;5061579;27;98106;-73
2022/03/12 19:13:13;;;;;;;22.13;9.02;;;;;;;;;;5068376;27;95753;-72
2022/03/12 19:15:43;;;;;;;14.63;9.80;;;;;;;;;;5071319;27;96682;-75
2022/03/12 19:18:12;;;;;;;15.05;9.48;;;;;;;;;;5070274;27;96395;-75
2022/03/12 19:20:39;;;;;;;19.20;9.88;;;;;;;;;;5062749;27;95293;-74
2022/03/12 19:23:05;;;;;;;15.05;9.05;;;;;;;;;;5070443;27;96735;-75
2022/03/12 19:25:32;;;;;;;17.50;9.80;;;;;;;;;;5071299;27;97399;-74
2022/03/12 19:27:59;;;;;;;20.88;10.13;;;;;;;;;;5067086;27;96664;-73
2022/03/12 19:30:44;;;;;;;17.25;9.32;;;;;;;;;;5070857;27;95359;-75
2022/03/12 19:33:11;;;;;;;17.48;10.07;;;;;;;;;;5070800;27;95537;-74
2022/03/12 19:35:38;;;;;;;18.45;9.48;;;;;;;;;;5061805;27;96012;-75
2022/03/12 19:38:07;;;;;;;15.00;10.57;;;;;;;;;;5049531;27;97468;-75
2022/03/12 19:40:33;;;;;;;16.73;9.98;;;;;;;;;;5049565;27;96412;-73
2022/03/12 19:43:00;;;;;;;15.93;10.20;;;;;;;;;;5062986;27;97071;-74
2022/03/12 19:45:28;;;;;;;18.65;10.18;;;;;;;;;;5053244;27;100178;-74
2022/03/12 19:47:55;;;;;;;18.20;9.25;;;;;;;;;;5049764;27;95340;-74
2022/03/12 19:50:21;;;;;;;16.52;10.25;;;;;;;;;;5068936;27;96870;-74
2022/03/12 19:52:48;;;;;;;15.98;10.15;;;;;;;;;;5066253;27;95461;-75
2022/03/12 19:55:18;;;;;;;18.48;10.07;;;;;;;;;;5048545;27;95688;-75
2022/03/12 19:57:46;;;;;;;13.47;9.03;;;;;;;;;;5057325;27;97827;-75
2022/03/12 20:00:13;;;;;;;16.75;9.70;;;;;;;;;;5066491;27;95708;-74
2022/03/12 20:02:40;;;;;;;15.45;10.18;;;;;;;;;;5068727;27;95774;-74
2022/03/12 20:05:07;;;;;;;15.73;9.63;;;;;;;;;;5068586;27;97220;-74
2022/03/12 20:07:50;;;;;;;16.55;9.50;;;;;;;;;;5067863;27;96721;-74
2022/03/12 20:10:18;;;;;;;14.02;9.57;;;;;;;;;;5066344;27;96732;-74
2022/03/12 20:12:45;;;;;;;15.90;10.02;;;;;;;;;;5072355;27;97587;-76
2022/03/12 20:15:29;;;;;;;14.93;9.80;;;;;;;;;;5061510;27;95496;-74
2022/03/12 20:18:09;;;;;;;17.52;10.00;;;;;;;;;;5057725;27;97317;-75
2022/03/12 20:20:38;;;;;;;16.83;9.85;;;;;;;;;;5063045;27;95689;-75
2022/03/12 20:23:04;;;;;;;16.00;9.57;;;;;;;;;;5069513;27;96992;-74
2022/03/12 20:25:31;;;;;;;14.52;9.80;;;;;;;;;;5058681;27;97612;-74
2022/03/12 20:28:17;;;;;;;16.65;10.30;;;;;;;;;;5048167;27;95723;-74
2022/03/12 20:30:45;;;;;;;23.00;10.23;;;;;;;;;;5064137;27;96759;-75
2022/03/12 20:33:12;;;;;;;15.80;9.98;;;;;;;;;;5067039;27;97660;-76
2022/03/12 20:35:39;;;;;;;22.17;10.27;;;;;;;;;;5072524;27;96110;-74
2022/03/12 20:40:52;;;;;;;18.20;10.48;;;;;;;;;;5068746;27;95419;-76
2022/03/12 20:43:19;;;;;;;15.52;10.40;;;;;;;;;;5068098;27;96851;-75
2022/03/12 20:45:46;;;;;;;18.55;10.90;;;;;;;;;;5067966;27;97846;-75
2022/03/12 20:48:13;;;;;;;16.70;9.90;;;;;;;;;;5067801;27;95211;-75
2022/03/12 20:50:39;;;;;;;15.25;9.57;;;;;;;;;;5070190;27;96221;-75
2022/03/12 20:53:06;;;;;;;16.90;10.73;;;;;;;;;;5068249;27;97410;-75
2022/03/12 20:55:33;;;;;;;18.48;10.32;;;;;;;;;;5068636;27;95563;-75
2022/03/12 20:58:00;;;;;;;14.40;9.90;;;;;;;;;;5071418;27;96836;-75
2022/03/12 21:00:27;;;;;;;18.65;10.80;;;;;;;;;;5062113;27;95779;-75
2022/03/12 21:02:53;;;;;;;20.85;11.45;;;;;;;;;;5067772;27;97162;-77
2022/03/12 21:05:26;;;;;;;21.60;11.25;;;;;;;;;;5067460;27;97966;-75
2022/03/12 21:07:56;;;;;;;20.23;10.70;;;;;;;;;;5068478;27;95962;-75
2022/03/12 21:10:23;;;;;;;18.40;10.40;;;;;;;;;;5068266;27;97908;-73
2022/03/12 21:12:50;;;;;;;17.48;10.88;;;;;;;;;;5067274;27;97280;-73
2022/03/12 21:15:16;;;;;;;16.90;10.73;;;;;;;;;;5066637;27;96843;-74
2022/03/12 21:18:02;;;;;;;17.38;10.80;;;;;;;;;;5068550;27;96787;-74
2022/03/12 21:20:45;;;;;;;17.98;11.15;;;;;;;;;;5070836;27;95683;-75
2022/03/12 21:23:12;;;;;;;18.63;11.02;;;;;;;;;;5068517;27;96828;-75
2022/03/12 21:25:39;;;;;;;18.98;10.43;;;;;;;;;;5068651;27;97763;-74
2022/03/12 21:28:07;;;;;;;17.13;10.70;;;;;;;;;;5068103;27;95350;-76
2022/03/12 21:30:35;;;;;;;18.33;10.80;;;;;;;;;;5068875;27;96782;-75
2022/03/12 21:33:03;;;;;;;17.80;9.88;;;;;;;;;;5068075;27;97241;-74
2022/03/12 21:35:30;;;;;;;15.18;10.27;;;;;;;;;;5068923;27;95910;-74
2022/03/12 21:38:16;;;;;;;15.93;10.30;;;;;;;;;;5066760;27;95164;-74
2022/03/12 21:40:43;;;;;;;16.60;10.35;;;;;;;;;;5068111;27;97525;-75
2022/03/12 21:43:10;;;;;;;15.93;9.85;;;;;;;;;;5071029;27;95431;-73
2022/03/12 21:45:37;;;;;;;16.33;9.88;;;;;;;;;;5067534;27;96132;-75
2022/03/12 21:48:06;;;;;;;18.95;10.63;;;;;;;;;;5068054;27;95326;-75
2022/03/12 21:50:33;;;;;;;15.32;10.38;;;;;;;;;;5067289;27;97598;-75
2022/03/12 21:53:18;;;;;;;17.00;10.27;;;;;;;;;;5067876;27;97330;-75
2022/03/12 21:55:45;;;;;;;17.23;10.05;;;;;;;;;;5070615;27;95407;-75
2022/03/12 21:58:12;;;;;;;16.63;10.27;;;;;;;;;;5069029;27;96885;-75
2022/03/12 22:00:38;;;;;;;19.48;10.05;;;;;;;;;;5068867;27;97949;-75
2022/03/12 22:03:07;;;;;;;17.83;10.38;;;;;;;;;;5071540;27;95631;-74
2022/03/12 22:05:52;;;;;;;16.55;10.73;;;;;;;;;;5068962;27;97249;-74
2022/03/12 22:08:18;;;;;;;19.92;10.80;;;;;;;;;;5068697;27;95376;-74
2022/03/12 22:10:45;;;;;;;19.02;11.20;;;;;;;;;;5068236;27;95981;-75
2022/03/12 22:13:15;;;;;;;19.50;10.27;;;;;;;;;;5066975;27;97606;-75
2022/03/12 22:15:43;;;;;;;17.20;10.23;;;;;;;;;;5068568;27;95301;-74
2022/03/12 22:20:57;;;;;;;21.25;10.55;;;;;;;;;;5061047;27;97383;-74
2022/03/12 22:23:24;;;;;;;23.70;11.30;;;;;;;;;;5068761;27;95350;-75
2022/03/12 22:25:51;;;;;;;17.10;10.07;;;;;;;;;;5073244;27;96987;-76
2022/03/12 22:28:17;;;;;;;16.58;10.60;;;;;;;;;;5072022;27;95784;-74
2022/03/12 22:30:50;;;;;;;15.88;10.68;;;;;;;;;;5072320;27;96826;-75
2022/03/12 22:33:17;;;;;;;14.95;10.45;;;;;;;;;;5071283;27;96602;-75
2022/03/12 22:35:44;;;;;;;19.75;10.85;;;;;;;;;;5070749;27;95888;-75
2022/03/12 22:38:11;;;;;;;17.35;10.38;;;;;;;;;;5070920;27;96842;-74
2022/03/12 22:40:58;;;;;;;16.02;10.20;;;;;;;;;;5071911;27;97352;-74
2022/03/12 22:43:24;;;;;;;23.27;11.27;;;;;;;;;;5072243;27;95636;-74
2022/03/12 22:45:50;;;;;;;15.27;10.70;;;;;;;;;;5071895;27;96693;-74
2022/03/12 22:48:37;;;;;;;17.52;11.50;;;;;;;;;;5074637;27;97668;-74
2022/03/12 22:51:03;;;;;;;16.63;11.15;;;;;;;;;;5070202;27;96926;-75
2022/03/12 22:53:29;;;;;;;19.15;11.45;;;;;;;;;;5071370;27;97292;-75
2022/03/12 22:55:56;;;;;;;20.20;11.32;;;;;;;;;;5071781;27;95328;-74
2022/03/12 22:58:25;;;;;;;17.98;10.52;;;;;;;;;;5071494;27;96756;-74
2022/03/12 23:00:58;;;;;;;18.48;10.98;;;;;;;;;;5070925;27;97382;-74
2022/03/12 23:08:49;;;;;;;22.13;10.75;;;;;;;;;;5071791;27;95354;-74
2022/03/12 23:09:01;;;;;;;15.63;10.25;;;;;;;;;;5070756;27;97607;-75
2022/03/12 23:11:28;;;;;;;18.17;10.55;;;;;;;;;;5075103;27;96704;-74
2022/03/12 23:14:00;;;;;;;18.58;11.35;;;;;;;;;;5071191;27;97331;-75
2022/03/12 23:16:27;;;;;;;18.02;10.68;;;;;;;;;;5071609;27;95418;-75
2022/03/12 23:19:01;;;;;;;20.23;10.95;;;;;;;;;;5071425;27;96786;-75
2022/03/12 23:21:28;;;;;;;15.68;10.60;;;;;;;;;;5070508;27;97410;-74
2022/03/12 23:23:57;;;;;;;18.23;10.82;;;;;;;;;;5071584;27;95868;-75
2022/03/12 23:26:29;;;;;;;17.58;11.07;;;;;;;;;;5071557;27;96592;-75
2022/03/12 23:28:56;;;;;;;16.97;11.13;;;;;;;;;;5070905;27;97453;-73
2022/03/12 23:31:42;;;;;;;16.80;10.88;;;;;;;;;;5070770;27;95475;-73
2022/03/12 23:34:08;;;;;;;17.58;10.68;;;;;;;;;;5074047;27;97056;-74
2022/03/12 23:36:34;;;;;;;18.02;10.70;;;;;;;;;;5070457;27;95907;-74
2022/03/12 23:39:02;;;;;;;17.50;10.25;;;;;;;;;;5070591;27;97158;-74
2022/03/12 23:41:28;;;;;;;19.75;11.07;;;;;;;;;;5070480;27;97332;-74
2022/03/12 23:43:55;;;;;;;23.50;11.02;;;;;;;;;;5069957;27;95810;-74
2022/03/12 23:46:22;;;;;;;19.75;10.93;;;;;;;;;;5071082;27;95746;-73
2022/03/12 23:48:49;;;;;;;17.00;10.70;;;;;;;;;;5070282;27;97570;-74
2022/03/12 23:54:20;;;;;;;18.52;10.90;;;;;;;;;;5070795;27;97316;-76
2022/03/12 23:56:46;;;;;;;18.88;10.68;;;;;;;;;;5073424;27;95900;-75
2022/03/12 23:59:19;;;;;;;16.73;10.77;;;;;;;;;;5070790;27;97193;-74
